sensor_id;sensor_type;location;lat;lon;timestamp;P1;durP1;ratioP1;P2;durP2;ratioP2
19940;SDS011;10132;50.864;5.176;2022-12-18T00:00:11;56.50;;;24.53;;
19940;SDS011;10132;50.864;5.176;2022-12-18T00:02:14;52.77;;;26.37;;
19940;SDS011;10132;50.864;5.176;2022-12-18T00:04:18;58.23;;;24.10;;
19940;SDS011;10132;50.864;5.176;2022-12-18T00:06:23;49.03;;;25.03;;
19940;SDS011;10132;50.864;5.176;2022-12-18T00:08:27;53.10;;;25.53;;
19940;SDS011;10132;50.864;5.176;2022-12-18T00:10:29;54.73;;;24.73;;
19940;SDS011;10132;50.864;5.176;2022-12-18T00:12:31;50.50;;;24.07;;
19940;SDS011;10132;50.864;5.176;2022-12-18T00:14:33;49.10;;;24.67;;
19940;SDS011;10132;50.864;5.176;2022-12-18T00:16:38;51.77;;;25.43;;
19940;SDS011;10132;50.864;5.176;2022-12-18T00:18:41;51.17;;;25.03;;
19940;SDS011;10132;50.864;5.176;2022-12-18T00:20:43;46.73;;;23.13;;
19940;SDS011;10132;50.864;5.176;2022-12-18T00:22:47;49.03;;;22.70;;
19940;SDS011;10132;50.864;5.176;2022-12-18T00:24:49;49.90;;;23.60;;
19940;SDS011;10132;50.864;5.176;2022-12-18T00:26:51;53.23;;;24.30;;
19940;SDS011;10132;50.864;5.176;2022-12-18T00:28:53;48.47;;;22.60;;
19940;SDS011;10132;50.864;5.176;2022-12-18T00:30:59;48.87;;;22.23;;
19940;SDS011;10132;50.864;5.176;2022-12-18T00:33:03;50.80;;;23.67;;
19940;SDS011;10132;50.864;5.176;2022-12-18T00:35:05;49.07;;;24.53;;
19940;SDS011;10132;50.864;5.176;2022-12-18T00:37:08;54.73;;;27.77;;
19940;SDS011;10132;50.864;5.176;2022-12-18T00:39:10;52.10;;;24.57;;
19940;SDS011;10132;50.864;5.176;2022-12-18T00:41:13;55.97;;;28.13;;
19940;SDS011;10132;50.864;5.176;2022-12-18T00:43:36;58.17;;;28.47;;
19940;SDS011;10132;50.864;5.176;2022-12-18T00:45:38;52.13;;;27.17;;
19940;SDS011;10132;50.864;5.176;2022-12-18T00:47:41;55.03;;;29.43;;
19940;SDS011;10132;50.864;5.176;2022-12-18T00:49:44;54.23;;;27.47;;
19940;SDS011;10132;50.864;5.176;2022-12-18T00:51:46;53.10;;;28.33;;
19940;SDS011;10132;50.864;5.176;2022-12-18T00:53:49;52.57;;;29.70;;
19940;SDS011;10132;50.864;5.176;2022-12-18T00:55:51;52.50;;;27.03;;
19940;SDS011;10132;50.864;5.176;2022-12-18T00:57:53;57.80;;;29.20;;
19940;SDS011;10132;50.864;5.176;2022-12-18T00:59:55;56.63;;;29.60;;
19940;SDS011;10132;50.864;5.176;2022-12-18T01:01:57;55.07;;;29.97;;
19940;SDS011;10132;50.864;5.176;2022-12-18T01:04:00;53.57;;;29.73;;
19940;SDS011;10132;50.864;5.176;2022-12-18T01:06:06;49.33;;;26.97;;
19940;SDS011;10132;50.864;5.176;2022-12-18T01:08:10;56.70;;;29.67;;
19940;SDS011;10132;50.864;5.176;2022-12-18T01:10:12;53.97;;;29.70;;
19940;SDS011;10132;50.864;5.176;2022-12-18T01:12:14;55.53;;;29.13;;
19940;SDS011;10132;50.864;5.176;2022-12-18T01:14:16;57.43;;;29.37;;
19940;SDS011;10132;50.864;5.176;2022-12-18T01:16:18;56.00;;;29.30;;
19940;SDS011;10132;50.864;5.176;2022-12-18T01:18:20;59.90;;;31.13;;
19940;SDS011;10132;50.864;5.176;2022-12-18T01:20:22;61.43;;;30.00;;
19940;SDS011;10132;50.864;5.176;2022-12-18T01:22:26;58.63;;;30.17;;
19940;SDS011;10132;50.864;5.176;2022-12-18T01:24:28;56.33;;;29.70;;
19940;SDS011;10132;50.864;5.176;2022-12-18T01:26:30;61.27;;;29.73;;
19940;SDS011;10132;50.864;5.176;2022-12-18T01:28:32;58.67;;;31.00;;
19940;SDS011;10132;50.864;5.176;2022-12-18T01:30:33;53.77;;;29.87;;
19940;SDS011;10132;50.864;5.176;2022-12-18T01:32:34;56.60;;;29.73;;
19940;SDS011;10132;50.864;5.176;2022-12-18T01:34:37;56.07;;;29.73;;
19940;SDS011;10132;50.864;5.176;2022-12-18T01:36:39;58.47;;;30.60;;
19940;SDS011;10132;50.864;5.176;2022-12-18T01:38:42;54.20;;;27.90;;
19940;SDS011;10132;50.864;5.176;2022-12-18T01:40:45;50.77;;;27.03;;
19940;SDS011;10132;50.864;5.176;2022-12-18T01:42:49;53.87;;;28.03;;
19940;SDS011;10132;50.864;5.176;2022-12-18T01:44:57;56.00;;;29.17;;
19940;SDS011;10132;50.864;5.176;2022-12-18T01:47:02;52.43;;;26.63;;
19940;SDS011;10132;50.864;5.176;2022-12-18T01:49:04;54.93;;;28.57;;
19940;SDS011;10132;50.864;5.176;2022-12-18T01:51:06;51.57;;;27.73;;
19940;SDS011;10132;50.864;5.176;2022-12-18T01:53:11;57.57;;;29.13;;
19940;SDS011;10132;50.864;5.176;2022-12-18T01:55:18;53.73;;;28.40;;
19940;SDS011;10132;50.864;5.176;2022-12-18T01:57:22;51.27;;;29.03;;
19940;SDS011;10132;50.864;5.176;2022-12-18T01:59:25;53.07;;;27.40;;
19940;SDS011;10132;50.864;5.176;2022-12-18T02:01:28;57.07;;;28.17;;
19940;SDS011;10132;50.864;5.176;2022-12-18T02:03:31;53.37;;;27.23;;
19940;SDS011;10132;50.864;5.176;2022-12-18T02:05:37;52.40;;;28.30;;
19940;SDS011;10132;50.864;5.176;2022-12-18T02:07:48;55.40;;;27.27;;
19940;SDS011;10132;50.864;5.176;2022-12-18T02:10:00;54.33;;;29.10;;
19940;SDS011;10132;50.864;5.176;2022-12-18T02:12:09;53.13;;;28.03;;
19940;SDS011;10132;50.864;5.176;2022-12-18T02:14:18;54.67;;;27.97;;
19940;SDS011;10132;50.864;5.176;2022-12-18T02:16:27;53.37;;;28.17;;
19940;SDS011;10132;50.864;5.176;2022-12-18T02:18:36;51.73;;;27.13;;
19940;SDS011;10132;50.864;5.176;2022-12-18T02:20:43;50.90;;;27.30;;
19940;SDS011;10132;50.864;5.176;2022-12-18T02:22:51;48.27;;;26.23;;
19940;SDS011;10132;50.864;5.176;2022-12-18T02:25:05;53.60;;;28.27;;
19940;SDS011;10132;50.864;5.176;2022-12-18T02:27:17;54.00;;;27.87;;
19940;SDS011;10132;50.864;5.176;2022-12-18T02:29:20;53.03;;;29.17;;
19940;SDS011;10132;50.864;5.176;2022-12-18T02:31:28;53.23;;;28.43;;
19940;SDS011;10132;50.864;5.176;2022-12-18T02:33:33;51.83;;;28.43;;
19940;SDS011;10132;50.864;5.176;2022-12-18T02:35:37;49.20;;;27.20;;
19940;SDS011;10132;50.864;5.176;2022-12-18T02:37:41;56.83;;;28.97;;
19940;SDS011;10132;50.864;5.176;2022-12-18T02:39:46;50.73;;;27.27;;
19940;SDS011;10132;50.864;5.176;2022-12-18T02:41:50;50.00;;;25.97;;
19940;SDS011;10132;50.864;5.176;2022-12-18T02:43:55;52.30;;;27.27;;
19940;SDS011;10132;50.864;5.176;2022-12-18T02:45:58;51.90;;;25.93;;
19940;SDS011;10132;50.864;5.176;2022-12-18T02:48:02;54.83;;;27.80;;
19940;SDS011;10132;50.864;5.176;2022-12-18T02:50:06;53.77;;;26.83;;
19940;SDS011;10132;50.864;5.176;2022-12-18T02:52:16;50.00;;;26.10;;
19940;SDS011;10132;50.864;5.176;2022-12-18T02:54:29;55.30;;;27.23;;
19940;SDS011;10132;50.864;5.176;2022-12-18T02:56:41;53.23;;;26.70;;
19940;SDS011;10132;50.864;5.176;2022-12-18T02:58:47;52.27;;;25.83;;
19940;SDS011;10132;50.864;5.176;2022-12-18T03:01:01;49.27;;;25.73;;
19940;SDS011;10132;50.864;5.176;2022-12-18T03:03:09;53.37;;;27.63;;
19940;SDS011;10132;50.864;5.176;2022-12-18T03:05:15;52.20;;;28.00;;
19940;SDS011;10132;50.864;5.176;2022-12-18T03:07:21;54.17;;;28.27;;
19940;SDS011;10132;50.864;5.176;2022-12-18T03:09:30;56.53;;;27.80;;
19940;SDS011;10132;50.864;5.176;2022-12-18T03:11:36;51.73;;;27.40;;
19940;SDS011;10132;50.864;5.176;2022-12-18T03:14:02;53.60;;;28.80;;
19940;SDS011;10132;50.864;5.176;2022-12-18T03:16:08;54.67;;;27.67;;
19940;SDS011;10132;50.864;5.176;2022-12-18T03:18:15;56.47;;;28.20;;
19940;SDS011;10132;50.864;5.176;2022-12-18T03:20:22;55.93;;;29.80;;
19940;SDS011;10132;50.864;5.176;2022-12-18T03:22:27;60.20;;;31.07;;
19940;SDS011;10132;50.864;5.176;2022-12-18T03:24:32;56.43;;;28.80;;
19940;SDS011;10132;50.864;5.176;2022-12-18T03:26:41;55.57;;;28.77;;
19940;SDS011;10132;50.864;5.176;2022-12-18T03:28:49;54.73;;;28.00;;
19940;SDS011;10132;50.864;5.176;2022-12-18T03:30:57;56.97;;;28.53;;
19940;SDS011;10132;50.864;5.176;2022-12-18T03:33:02;54.40;;;27.80;;
19940;SDS011;10132;50.864;5.176;2022-12-18T03:35:09;52.20;;;27.33;;
19940;SDS011;10132;50.864;5.176;2022-12-18T03:37:14;56.03;;;27.57;;
19940;SDS011;10132;50.864;5.176;2022-12-18T03:39:18;56.43;;;29.67;;
19940;SDS011;10132;50.864;5.176;2022-12-18T03:41:23;52.37;;;27.93;;
19940;SDS011;10132;50.864;5.176;2022-12-18T03:43:34;53.13;;;27.53;;
19940;SDS011;10132;50.864;5.176;2022-12-18T03:45:44;52.37;;;27.00;;
19940;SDS011;10132;50.864;5.176;2022-12-18T03:47:57;53.47;;;27.87;;
19940;SDS011;10132;50.864;5.176;2022-12-18T03:50:03;59.30;;;29.40;;
19940;SDS011;10132;50.864;5.176;2022-12-18T03:52:13;53.13;;;27.00;;
19940;SDS011;10132;50.864;5.176;2022-12-18T03:54:20;59.33;;;28.03;;
19940;SDS011;10132;50.864;5.176;2022-12-18T03:56:25;56.00;;;27.67;;
19940;SDS011;10132;50.864;5.176;2022-12-18T03:58:31;62.67;;;30.53;;
19940;SDS011;10132;50.864;5.176;2022-12-18T04:00:36;52.80;;;28.33;;
19940;SDS011;10132;50.864;5.176;2022-12-18T04:02:40;56.70;;;28.80;;
19940;SDS011;10132;50.864;5.176;2022-12-18T04:04:48;50.93;;;27.77;;
19940;SDS011;10132;50.864;5.176;2022-12-18T04:06:55;55.37;;;27.90;;
19940;SDS011;10132;50.864;5.176;2022-12-18T04:08:58;53.40;;;26.93;;
19940;SDS011;10132;50.864;5.176;2022-12-18T04:11:01;55.27;;;28.33;;
19940;SDS011;10132;50.864;5.176;2022-12-18T04:13:03;51.77;;;26.07;;
19940;SDS011;10132;50.864;5.176;2022-12-18T04:15:05;50.03;;;24.97;;
19940;SDS011;10132;50.864;5.176;2022-12-18T04:17:09;53.37;;;26.83;;
19940;SDS011;10132;50.864;5.176;2022-12-18T04:19:10;48.30;;;25.03;;
19940;SDS011;10132;50.864;5.176;2022-12-18T04:21:14;60.47;;;28.13;;
19940;SDS011;10132;50.864;5.176;2022-12-18T04:23:16;60.17;;;31.47;;
19940;SDS011;10132;50.864;5.176;2022-12-18T04:25:18;64.60;;;32.97;;
19940;SDS011;10132;50.864;5.176;2022-12-18T04:27:22;64.23;;;32.20;;
19940;SDS011;10132;50.864;5.176;2022-12-18T04:29:24;57.93;;;29.83;;
19940;SDS011;10132;50.864;5.176;2022-12-18T04:31:26;59.60;;;31.03;;
19940;SDS011;10132;50.864;5.176;2022-12-18T04:33:28;59.53;;;30.17;;
19940;SDS011;10132;50.864;5.176;2022-12-18T04:35:30;52.27;;;28.83;;
19940;SDS011;10132;50.864;5.176;2022-12-18T04:37:34;49.20;;;26.90;;
19940;SDS011;10132;50.864;5.176;2022-12-18T04:39:35;48.83;;;26.47;;
19940;SDS011;10132;50.864;5.176;2022-12-18T04:41:37;49.90;;;25.17;;
19940;SDS011;10132;50.864;5.176;2022-12-18T04:43:39;53.60;;;26.27;;
19940;SDS011;10132;50.864;5.176;2022-12-18T04:45:41;49.20;;;25.50;;
19940;SDS011;10132;50.864;5.176;2022-12-18T04:47:43;49.70;;;26.57;;
19940;SDS011;10132;50.864;5.176;2022-12-18T04:49:45;48.17;;;25.57;;
19940;SDS011;10132;50.864;5.176;2022-12-18T04:51:47;53.67;;;28.00;;
19940;SDS011;10132;50.864;5.176;2022-12-18T04:53:51;53.10;;;26.67;;
19940;SDS011;10132;50.864;5.176;2022-12-18T04:56:01;51.53;;;25.30;;
19940;SDS011;10132;50.864;5.176;2022-12-18T04:58:05;51.40;;;26.47;;
19940;SDS011;10132;50.864;5.176;2022-12-18T05:00:07;48.80;;;26.83;;
19940;SDS011;10132;50.864;5.176;2022-12-18T05:02:10;53.37;;;26.70;;
19940;SDS011;10132;50.864;5.176;2022-12-18T05:04:12;49.90;;;26.37;;
19940;SDS011;10132;50.864;5.176;2022-12-18T05:06:14;46.47;;;25.30;;
19940;SDS011;10132;50.864;5.176;2022-12-18T05:08:16;49.97;;;26.23;;
19940;SDS011;10132;50.864;5.176;2022-12-18T05:10:19;48.93;;;25.33;;
19940;SDS011;10132;50.864;5.176;2022-12-18T05:12:21;52.37;;;27.40;;
19940;SDS011;10132;50.864;5.176;2022-12-18T05:14:23;50.13;;;25.90;;
19940;SDS011;10132;50.864;5.176;2022-12-18T05:16:27;53.07;;;25.40;;
19940;SDS011;10132;50.864;5.176;2022-12-18T05:18:29;48.83;;;25.00;;
19940;SDS011;10132;50.864;5.176;2022-12-18T05:20:31;48.93;;;25.73;;
19940;SDS011;10132;50.864;5.176;2022-12-18T05:22:33;50.10;;;25.67;;
19940;SDS011;10132;50.864;5.176;2022-12-18T05:24:35;49.47;;;26.37;;
19940;SDS011;10132;50.864;5.176;2022-12-18T05:26:38;49.33;;;25.30;;
19940;SDS011;10132;50.864;5.176;2022-12-18T05:28:40;47.20;;;24.87;;
19940;SDS011;10132;50.864;5.176;2022-12-18T05:30:42;52.87;;;27.17;;
19940;SDS011;10132;50.864;5.176;2022-12-18T05:32:48;50.57;;;25.43;;
19940;SDS011;10132;50.864;5.176;2022-12-18T05:34:50;51.30;;;26.03;;
19940;SDS011;10132;50.864;5.176;2022-12-18T05:36:52;46.53;;;24.47;;
19940;SDS011;10132;50.864;5.176;2022-12-18T05:38:54;49.47;;;25.13;;
19940;SDS011;10132;50.864;5.176;2022-12-18T05:40:56;49.83;;;25.47;;
19940;SDS011;10132;50.864;5.176;2022-12-18T05:43:00;51.87;;;25.10;;
19940;SDS011;10132;50.864;5.176;2022-12-18T05:45:02;55.53;;;27.27;;
19940;SDS011;10132;50.864;5.176;2022-12-18T05:47:04;52.70;;;24.67;;
19940;SDS011;10132;50.864;5.176;2022-12-18T05:49:06;49.97;;;24.33;;
19940;SDS011;10132;50.864;5.176;2022-12-18T05:51:10;45.10;;;24.73;;
19940;SDS011;10132;50.864;5.176;2022-12-18T05:53:13;52.77;;;25.97;;
19940;SDS011;10132;50.864;5.176;2022-12-18T05:55:16;51.60;;;26.13;;
19940;SDS011;10132;50.864;5.176;2022-12-18T05:57:18;48.27;;;24.70;;
19940;SDS011;10132;50.864;5.176;2022-12-18T05:59:21;52.17;;;25.47;;
19940;SDS011;10132;50.864;5.176;2022-12-18T06:01:23;49.73;;;25.60;;
19940;SDS011;10132;50.864;5.176;2022-12-18T06:03:27;45.37;;;24.73;;
19940;SDS011;10132;50.864;5.176;2022-12-18T06:05:29;51.60;;;25.63;;
19940;SDS011;10132;50.864;5.176;2022-12-18T06:07:36;46.27;;;24.47;;
19940;SDS011;10132;50.864;5.176;2022-12-18T06:09:38;48.53;;;25.03;;
19940;SDS011;10132;50.864;5.176;2022-12-18T06:11:40;48.07;;;23.60;;
19940;SDS011;10132;50.864;5.176;2022-12-18T06:13:42;46.43;;;24.73;;
19940;SDS011;10132;50.864;5.176;2022-12-18T06:15:45;49.77;;;24.10;;
19940;SDS011;10132;50.864;5.176;2022-12-18T06:17:47;44.20;;;23.60;;
19940;SDS011;10132;50.864;5.176;2022-12-18T06:19:49;41.33;;;23.90;;
19940;SDS011;10132;50.864;5.176;2022-12-18T06:21:51;45.80;;;24.17;;
19940;SDS011;10132;50.864;5.176;2022-12-18T06:23:53;49.10;;;24.70;;
19940;SDS011;10132;50.864;5.176;2022-12-18T06:25:55;43.97;;;23.67;;
19940;SDS011;10132;50.864;5.176;2022-12-18T06:27:57;46.63;;;24.10;;
19940;SDS011;10132;50.864;5.176;2022-12-18T06:29:59;46.70;;;24.93;;
19940;SDS011;10132;50.864;5.176;2022-12-18T06:32:02;48.33;;;24.33;;
19940;SDS011;10132;50.864;5.176;2022-12-18T06:34:04;43.57;;;24.10;;
19940;SDS011;10132;50.864;5.176;2022-12-18T06:36:07;52.20;;;25.07;;
19940;SDS011;10132;50.864;5.176;2022-12-18T06:38:11;46.07;;;23.53;;
19940;SDS011;10132;50.864;5.176;2022-12-18T06:40:13;43.23;;;23.63;;
19940;SDS011;10132;50.864;5.176;2022-12-18T06:42:15;46.37;;;22.47;;
19940;SDS011;10132;50.864;5.176;2022-12-18T06:44:17;43.87;;;23.27;;
19940;SDS011;10132;50.864;5.176;2022-12-18T06:46:18;43.10;;;23.17;;
19940;SDS011;10132;50.864;5.176;2022-12-18T06:48:22;47.37;;;22.60;;
19940;SDS011;10132;50.864;5.176;2022-12-18T06:50:24;41.87;;;22.83;;
19940;SDS011;10132;50.864;5.176;2022-12-18T06:52:26;41.43;;;22.80;;
19940;SDS011;10132;50.864;5.176;2022-12-18T06:54:28;42.07;;;22.17;;
19940;SDS011;10132;50.864;5.176;2022-12-18T06:56:30;43.80;;;22.93;;
19940;SDS011;10132;50.864;5.176;2022-12-18T06:58:32;42.40;;;23.33;;
19940;SDS011;10132;50.864;5.176;2022-12-18T07:00:34;45.13;;;22.50;;
19940;SDS011;10132;50.864;5.176;2022-12-18T07:02:39;38.00;;;19.37;;
19940;SDS011;10132;50.864;5.176;2022-12-18T07:04:42;38.63;;;20.70;;
19940;SDS011;10132;50.864;5.176;2022-12-18T07:06:44;38.53;;;20.40;;
19940;SDS011;10132;50.864;5.176;2022-12-18T07:08:46;41.27;;;20.30;;
19940;SDS011;10132;50.864;5.176;2022-12-18T07:10:49;42.30;;;20.93;;
19940;SDS011;10132;50.864;5.176;2022-12-18T07:12:51;39.53;;;19.97;;
19940;SDS011;10132;50.864;5.176;2022-12-18T07:14:53;42.67;;;20.90;;
19940;SDS011;10132;50.864;5.176;2022-12-18T07:16:55;44.07;;;20.50;;
19940;SDS011;10132;50.864;5.176;2022-12-18T07:18:57;38.67;;;19.90;;
19940;SDS011;10132;50.864;5.176;2022-12-18T07:21:03;40.43;;;19.83;;
19940;SDS011;10132;50.864;5.176;2022-12-18T07:23:05;36.90;;;19.73;;
19940;SDS011;10132;50.864;5.176;2022-12-18T07:25:07;39.50;;;21.20;;
19940;SDS011;10132;50.864;5.176;2022-12-18T07:27:10;41.67;;;22.73;;
19940;SDS011;10132;50.864;5.176;2022-12-18T07:29:12;40.70;;;21.03;;
19940;SDS011;10132;50.864;5.176;2022-12-18T07:31:15;42.47;;;23.53;;
19940;SDS011;10132;50.864;5.176;2022-12-18T07:33:19;44.63;;;21.30;;
19940;SDS011;10132;50.864;5.176;2022-12-18T07:35:21;35.47;;;19.53;;
19940;SDS011;10132;50.864;5.176;2022-12-18T07:37:24;40.93;;;21.13;;
19940;SDS011;10132;50.864;5.176;2022-12-18T07:39:26;51.17;;;25.80;;
19940;SDS011;10132;50.864;5.176;2022-12-18T07:41:28;35.40;;;18.93;;
19940;SDS011;10132;50.864;5.176;2022-12-18T07:43:30;33.10;;;18.27;;
19940;SDS011;10132;50.864;5.176;2022-12-18T07:45:32;30.57;;;16.87;;
19940;SDS011;10132;50.864;5.176;2022-12-18T07:47:34;32.07;;;16.67;;
19940;SDS011;10132;50.864;5.176;2022-12-18T07:49:37;30.23;;;16.43;;
19940;SDS011;10132;50.864;5.176;2022-12-18T07:51:39;30.83;;;17.50;;
19940;SDS011;10132;50.864;5.176;2022-12-18T07:53:42;31.50;;;17.20;;
19940;SDS011;10132;50.864;5.176;2022-12-18T07:55:44;29.93;;;17.33;;
19940;SDS011;10132;50.864;5.176;2022-12-18T07:57:46;31.10;;;16.80;;
19940;SDS011;10132;50.864;5.176;2022-12-18T07:59:48;30.60;;;17.13;;
19940;SDS011;10132;50.864;5.176;2022-12-18T08:01:50;30.80;;;16.13;;
19940;SDS011;10132;50.864;5.176;2022-12-18T08:03:52;33.57;;;16.93;;
19940;SDS011;10132;50.864;5.176;2022-12-18T08:05:57;35.40;;;18.10;;
19940;SDS011;10132;50.864;5.176;2022-12-18T08:08:00;29.43;;;16.20;;
19940;SDS011;10132;50.864;5.176;2022-12-18T08:10:04;35.30;;;18.50;;
19940;SDS011;10132;50.864;5.176;2022-12-18T08:12:07;27.77;;;14.80;;
19940;SDS011;10132;50.864;5.176;2022-12-18T08:14:09;31.60;;;14.47;;
19940;SDS011;10132;50.864;5.176;2022-12-18T08:16:11;29.07;;;13.50;;
19940;SDS011;10132;50.864;5.176;2022-12-18T08:18:13;29.07;;;13.87;;
19940;SDS011;10132;50.864;5.176;2022-12-18T08:20:15;24.40;;;13.60;;
19940;SDS011;10132;50.864;5.176;2022-12-18T08:22:18;24.07;;;12.47;;
19940;SDS011;10132;50.864;5.176;2022-12-18T08:24:20;25.63;;;13.50;;
19940;SDS011;10132;50.864;5.176;2022-12-18T08:26:24;24.77;;;12.80;;
19940;SDS011;10132;50.864;5.176;2022-12-18T08:28:27;22.47;;;12.13;;
19940;SDS011;10132;50.864;5.176;2022-12-18T08:30:29;22.27;;;12.17;;
19940;SDS011;10132;50.864;5.176;2022-12-18T08:32:31;21.40;;;11.70;;
19940;SDS011;10132;50.864;5.176;2022-12-18T08:34:33;19.77;;;10.40;;
19940;SDS011;10132;50.864;5.176;2022-12-18T08:36:35;19.73;;;10.23;;
19940;SDS011;10132;50.864;5.176;2022-12-18T08:38:37;23.43;;;13.07;;
19940;SDS011;10132;50.864;5.176;2022-12-18T08:40:40;23.60;;;12.37;;
19940;SDS011;10132;50.864;5.176;2022-12-18T08:42:43;21.90;;;12.00;;
19940;SDS011;10132;50.864;5.176;2022-12-18T08:45:02;20.20;;;10.73;;
19940;SDS011;10132;50.864;5.176;2022-12-18T08:47:05;19.87;;;11.37;;
19940;SDS011;10132;50.864;5.176;2022-12-18T08:49:08;25.07;;;11.87;;
19940;SDS011;10132;50.864;5.176;2022-12-18T08:51:11;20.93;;;12.57;;
19940;SDS011;10132;50.864;5.176;2022-12-18T08:53:13;20.43;;;11.73;;
19940;SDS011;10132;50.864;5.176;2022-12-18T08:55:15;18.30;;;11.30;;
19940;SDS011;10132;50.864;5.176;2022-12-18T08:57:17;22.70;;;12.17;;
19940;SDS011;10132;50.864;5.176;2022-12-18T08:59:21;20.47;;;12.00;;
19940;SDS011;10132;50.864;5.176;2022-12-18T09:01:23;22.57;;;12.10;;
19940;SDS011;10132;50.864;5.176;2022-12-18T09:03:25;21.80;;;12.97;;
19940;SDS011;10132;50.864;5.176;2022-12-18T09:05:27;22.87;;;13.57;;
19940;SDS011;10132;50.864;5.176;2022-12-18T09:07:29;18.83;;;12.67;;
19940;SDS011;10132;50.864;5.176;2022-12-18T09:09:31;22.07;;;14.27;;
19940;SDS011;10132;50.864;5.176;2022-12-18T09:11:33;19.57;;;12.83;;
19940;SDS011;10132;50.864;5.176;2022-12-18T09:13:35;22.03;;;12.57;;
19940;SDS011;10132;50.864;5.176;2022-12-18T09:15:41;22.93;;;13.37;;
19940;SDS011;10132;50.864;5.176;2022-12-18T09:17:45;18.27;;;11.83;;
19940;SDS011;10132;50.864;5.176;2022-12-18T09:19:50;18.70;;;13.00;;
19940;SDS011;10132;50.864;5.176;2022-12-18T09:21:52;22.03;;;12.97;;
19940;SDS011;10132;50.864;5.176;2022-12-18T09:23:55;20.40;;;12.73;;
19940;SDS011;10132;50.864;5.176;2022-12-18T09:25:58;18.27;;;11.47;;
19940;SDS011;10132;50.864;5.176;2022-12-18T09:28:00;21.33;;;12.73;;
19940;SDS011;10132;50.864;5.176;2022-12-18T09:30:03;19.40;;;11.43;;
19940;SDS011;10132;50.864;5.176;2022-12-18T09:32:07;16.27;;;10.73;;
19940;SDS011;10132;50.864;5.176;2022-12-18T09:34:09;18.43;;;11.20;;
19940;SDS011;10132;50.864;5.176;2022-12-18T09:36:12;18.03;;;11.70;;
19940;SDS011;10132;50.864;5.176;2022-12-18T09:38:16;18.37;;;11.40;;
19940;SDS011;10132;50.864;5.176;2022-12-18T09:40:23;18.27;;;11.20;;
19940;SDS011;10132;50.864;5.176;2022-12-18T09:42:28;18.30;;;11.10;;
19940;SDS011;10132;50.864;5.176;2022-12-18T09:44:31;19.80;;;10.67;;
19940;SDS011;10132;50.864;5.176;2022-12-18T09:46:38;19.07;;;11.40;;
19940;SDS011;10132;50.864;5.176;2022-12-18T09:48:46;19.47;;;12.00;;
19940;SDS011;10132;50.864;5.176;2022-12-18T09:50:51;16.90;;;10.43;;
19940;SDS011;10132;50.864;5.176;2022-12-18T09:52:57;22.47;;;13.37;;
19940;SDS011;10132;50.864;5.176;2022-12-18T09:55:08;21.03;;;12.73;;
19940;SDS011;10132;50.864;5.176;2022-12-18T09:57:17;20.20;;;12.50;;
19940;SDS011;10132;50.864;5.176;2022-12-18T09:59:23;16.63;;;11.13;;
19940;SDS011;10132;50.864;5.176;2022-12-18T10:01:27;18.23;;;11.00;;
19940;SDS011;10132;50.864;5.176;2022-12-18T10:03:31;16.37;;;9.93;;
19940;SDS011;10132;50.864;5.176;2022-12-18T10:05:36;14.27;;;10.00;;
19940;SDS011;10132;50.864;5.176;2022-12-18T10:07:51;17.73;;;10.03;;
19940;SDS011;10132;50.864;5.176;2022-12-18T10:09:59;16.10;;;9.43;;
19940;SDS011;10132;50.864;5.176;2022-12-18T10:12:08;14.47;;;9.93;;
19940;SDS011;10132;50.864;5.176;2022-12-18T10:14:19;15.67;;;10.13;;
19940;SDS011;10132;50.864;5.176;2022-12-18T10:16:25;29.80;;;21.23;;
19940;SDS011;10132;50.864;5.176;2022-12-18T10:18:36;28.50;;;19.43;;
19940;SDS011;10132;50.864;5.176;2022-12-18T10:20:52;17.67;;;12.00;;
19940;SDS011;10132;50.864;5.176;2022-12-18T10:23:00;16.60;;;12.13;;
19940;SDS011;10132;50.864;5.176;2022-12-18T10:25:16;15.77;;;11.60;;
19940;SDS011;10132;50.864;5.176;2022-12-18T10:27:23;15.93;;;10.30;;
19940;SDS011;10132;50.864;5.176;2022-12-18T10:29:27;14.70;;;8.97;;
19940;SDS011;10132;50.864;5.176;2022-12-18T10:31:29;12.83;;;8.90;;
19940;SDS011;10132;50.864;5.176;2022-12-18T10:33:31;12.83;;;9.13;;
19940;SDS011;10132;50.864;5.176;2022-12-18T10:35:34;12.93;;;8.83;;
19940;SDS011;10132;50.864;5.176;2022-12-18T10:37:38;13.27;;;8.47;;
19940;SDS011;10132;50.864;5.176;2022-12-18T10:40:08;13.63;;;8.87;;
19940;SDS011;10132;50.864;5.176;2022-12-18T10:42:16;15.53;;;9.83;;
19940;SDS011;10132;50.864;5.176;2022-12-18T10:44:19;14.93;;;9.70;;
19940;SDS011;10132;50.864;5.176;2022-12-18T10:46:22;13.03;;;8.70;;
19940;SDS011;10132;50.864;5.176;2022-12-18T10:48:24;14.20;;;9.17;;
19940;SDS011;10132;50.864;5.176;2022-12-18T10:50:28;13.87;;;8.97;;
19940;SDS011;10132;50.864;5.176;2022-12-18T10:52:32;13.83;;;9.40;;
19940;SDS011;10132;50.864;5.176;2022-12-18T10:54:35;13.00;;;8.50;;
19940;SDS011;10132;50.864;5.176;2022-12-18T10:56:39;12.27;;;8.37;;
19940;SDS011;10132;50.864;5.176;2022-12-18T10:58:41;14.23;;;9.07;;
19940;SDS011;10132;50.864;5.176;2022-12-18T11:00:43;13.73;;;9.63;;
19940;SDS011;10132;50.864;5.176;2022-12-18T11:02:45;13.70;;;8.73;;
19940;SDS011;10132;50.864;5.176;2022-12-18T11:04:50;21.57;;;15.60;;
19940;SDS011;10132;50.864;5.176;2022-12-18T11:06:59;17.07;;;10.03;;
19940;SDS011;10132;50.864;5.176;2022-12-18T11:09:03;15.30;;;10.97;;
19940;SDS011;10132;50.864;5.176;2022-12-18T11:11:14;15.77;;;10.27;;
19940;SDS011;10132;50.864;5.176;2022-12-18T11:13:20;15.77;;;9.97;;
19940;SDS011;10132;50.864;5.176;2022-12-18T11:15:25;17.63;;;10.50;;
19940;SDS011;10132;50.864;5.176;2022-12-18T11:17:31;13.93;;;9.60;;
19940;SDS011;10132;50.864;5.176;2022-12-18T11:19:35;17.03;;;10.13;;
19940;SDS011;10132;50.864;5.176;2022-12-18T11:21:39;17.87;;;10.73;;
19940;SDS011;10132;50.864;5.176;2022-12-18T11:23:45;15.07;;;10.27;;
19940;SDS011;10132;50.864;5.176;2022-12-18T11:25:52;16.90;;;11.27;;
19940;SDS011;10132;50.864;5.176;2022-12-18T11:27:58;15.00;;;11.17;;
19940;SDS011;10132;50.864;5.176;2022-12-18T11:30:08;19.73;;;12.70;;
19940;SDS011;10132;50.864;5.176;2022-12-18T11:32:21;23.07;;;13.40;;
19940;SDS011;10132;50.864;5.176;2022-12-18T11:34:34;19.97;;;12.67;;
19940;SDS011;10132;50.864;5.176;2022-12-18T11:36:37;20.67;;;12.17;;
19940;SDS011;10132;50.864;5.176;2022-12-18T11:38:43;16.93;;;11.47;;
19940;SDS011;10132;50.864;5.176;2022-12-18T11:40:50;16.70;;;11.30;;
19940;SDS011;10132;50.864;5.176;2022-12-18T11:42:58;18.33;;;11.43;;
19940;SDS011;10132;50.864;5.176;2022-12-18T11:45:20;18.63;;;12.03;;
19940;SDS011;10132;50.864;5.176;2022-12-18T11:47:29;16.60;;;11.37;;
19940;SDS011;10132;50.864;5.176;2022-12-18T11:49:38;18.90;;;12.33;;
19940;SDS011;10132;50.864;5.176;2022-12-18T11:51:44;17.07;;;11.87;;
19940;SDS011;10132;50.864;5.176;2022-12-18T11:53:51;15.43;;;11.07;;
19940;SDS011;10132;50.864;5.176;2022-12-18T11:55:56;18.77;;;13.20;;
19940;SDS011;10132;50.864;5.176;2022-12-18T11:58:08;21.93;;;11.80;;
19940;SDS011;10132;50.864;5.176;2022-12-18T12:00:15;16.07;;;11.17;;
19940;SDS011;10132;50.864;5.176;2022-12-18T12:02:24;16.27;;;10.93;;
19940;SDS011;10132;50.864;5.176;2022-12-18T12:04:41;16.60;;;11.27;;
19940;SDS011;10132;50.864;5.176;2022-12-18T12:06:58;18.00;;;11.40;;
19940;SDS011;10132;50.864;5.176;2022-12-18T12:09:12;17.03;;;11.53;;